createdAt,value
2022-12-29T00:02:09.132Z,99407.81
2022-12-29T00:04:40.496Z,99394.03
2022-12-29T00:07:11.926Z,99416.47
2022-12-29T00:09:43.273Z,99417.19
2022-12-29T00:12:14.587Z,99423.28
2022-12-29T00:15:04.422Z,99405.69
2022-12-29T00:17:35.709Z,99406.50
2022-12-29T00:20:25.845Z,99403.81
2022-12-29T00:23:15.705Z,99400.41
2022-12-29T00:26:05.667Z,99402.78
2022-12-29T00:28:55.674Z,99410.59
2022-12-29T00:31:45.899Z,99404.34
2022-12-29T00:34:35.726Z,99393.72
2022-12-29T00:37:07.052Z,99391.00
2022-12-29T00:39:57.067Z,99380.31
2022-12-29T00:42:47.039Z,99378.47
2022-12-29T00:45:18.384Z,99371.41
2022-12-29T00:47:49.707Z,99376.50
2022-12-29T00:50:20.991Z,99371.16
2022-12-29T00:52:52.374Z,99360.53
2022-12-29T00:55:23.691Z,99353.56
2022-12-29T00:57:55.259Z,99354.56
2022-12-29T01:00:26.715Z,99318.44
2022-12-29T01:02:58.261Z,99337.56
2022-12-29T01:05:29.693Z,99347.91
2022-12-29T01:08:00.945Z,99346.13
2022-12-29T01:10:32.208Z,99351.25
2022-12-29T01:13:03.584Z,99329.53
2022-12-29T01:15:34.856Z,99309.28
2022-12-29T01:18:06.258Z,99353.66
2022-12-29T01:20:37.506Z,99334.44
2022-12-29T01:23:08.777Z,99343.63
2022-12-29T01:25:40.032Z,99316.63
2022-12-29T01:28:11.307Z,99326.69
2022-12-29T01:30:42.580Z,99327.47
2022-12-29T01:33:14.113Z,99328.22
2022-12-29T01:35:45.660Z,99326.38
2022-12-29T01:38:16.934Z,99321.91
2022-12-29T01:40:49.419Z,99320.88
2022-12-29T01:43:20.745Z,99308.66
2022-12-29T01:45:54.828Z,99295.44
2022-12-29T01:48:26.299Z,99305.00
2022-12-29T01:50:57.703Z,99304.69
2022-12-29T01:53:33.592Z,99311.59
2022-12-29T01:56:10.841Z,99303.66
2022-12-29T01:58:47.065Z,99300.09
2022-12-29T02:01:20.596Z,99311.47
2022-12-29T02:03:52.627Z,99310.69
2022-12-29T02:06:32.147Z,99306.16
2022-12-29T02:09:03.528Z,99262.22
2022-12-29T02:11:37.225Z,99300.88
2022-12-29T02:14:13.651Z,99282.28
2022-12-29T02:16:58.901Z,99294.66
2022-12-29T02:20:01.150Z,99291.19
2022-12-29T02:22:32.411Z,99290.41
2022-12-29T02:25:34.446Z,99280.00
2022-12-29T02:28:25.146Z,99272.81
2022-12-29T02:31:17.922Z,99267.50
2022-12-29T02:34:07.867Z,99262.22
2022-12-29T02:37:04.028Z,99251.78
2022-12-29T02:39:53.385Z,99251.09
2022-12-29T02:42:41.297Z,99254.28
2022-12-29T02:45:38.250Z,99228.06
2022-12-29T02:48:23.422Z,99223.97
2022-12-29T02:51:47.277Z,99250.56
2022-12-29T02:54:38.529Z,99251.44
2022-12-29T02:57:22.027Z,99254.03
2022-12-29T03:00:02.330Z,99247.16
2022-12-29T03:02:58.661Z,99244.25
2022-12-29T03:05:43.078Z,99245.97
2022-12-29T03:08:23.955Z,99238.03
2022-12-29T03:11:06.195Z,99240.69
2022-12-29T03:14:06.826Z,99232.78
2022-12-29T03:17:03.431Z,99211.97
2022-12-29T03:23:28.750Z,99202.47
2022-12-29T03:26:04.071Z,99219.59
2022-12-29T03:28:40.365Z,99231.06
2022-12-29T03:31:12.587Z,99223.88
2022-12-29T03:33:45.914Z,99229.06
2022-12-29T03:36:28.729Z,99216.72
2022-12-29T03:39:09.524Z,99196.59
2022-12-29T03:41:44.059Z,99191.13
2022-12-29T03:44:15.338Z,99199.59
2022-12-29T03:46:46.615Z,99203.94
2022-12-29T03:49:17.898Z,99199.47
2022-12-29T03:51:51.899Z,99192.31
2022-12-29T03:54:24.241Z,99204.53
2022-12-29T03:56:55.515Z,99206.13
2022-12-29T03:59:26.773Z,99194.81
2022-12-29T04:01:58.190Z,99190.38
2022-12-29T04:04:29.627Z,99181.78
2022-12-29T04:07:00.991Z,99197.28
2022-12-29T04:09:32.338Z,99192.66
2022-12-29T04:12:03.927Z,99182.88
2022-12-29T04:14:35.220Z,99190.75
2022-12-29T04:17:06.543Z,99188.84
2022-12-29T04:19:37.789Z,99179.28
2022-12-29T04:22:09.213Z,99179.28
2022-12-29T04:24:40.472Z,99164.16
2022-12-29T04:27:11.790Z,99176.09
2022-12-29T04:29:43.061Z,99168.91
2022-12-29T04:32:14.467Z,99161.81
2022-12-29T04:34:45.733Z,99166.81
2022-12-29T04:37:17.029Z,99151.72
2022-12-29T04:39:48.295Z,99153.31
2022-12-29T04:42:19.574Z,99136.78
2022-12-29T04:44:50.860Z,99154.84
2022-12-29T04:47:22.213Z,99141.53
2022-12-29T04:49:53.544Z,99150.28
2022-12-29T04:52:24.884Z,99151.22
2022-12-29T04:54:56.157Z,99142.47
2022-12-29T04:57:28.457Z,99121.63
2022-12-29T04:59:59.740Z,99136.13
2022-12-29T05:02:31.323Z,99134.44
2022-12-29T05:05:02.751Z,99154.56
2022-12-29T05:07:34.445Z,99144.81
2022-12-29T05:10:06.684Z,99131.72
2022-12-29T05:12:39.401Z,99141.25
2022-12-29T05:15:11.803Z,99146.50
2022-12-29T05:17:43.094Z,99144.81
2022-12-29T05:20:14.403Z,99141.13
2022-12-29T05:22:45.959Z,99125.63
2022-12-29T05:25:17.219Z,99157.91
2022-12-29T05:27:48.758Z,99143.78
2022-12-29T05:30:20.139Z,99150.75
2022-12-29T05:32:51.442Z,99149.00
2022-12-29T05:35:22.703Z,99136.81
2022-12-29T05:37:53.982Z,99159.75
2022-12-29T05:40:25.262Z,99148.22
2022-12-29T05:42:56.553Z,99136.56
2022-12-29T05:45:27.828Z,99151.41
2022-12-29T05:47:59.166Z,99148.69
2022-12-29T05:50:30.441Z,99135.75
2022-12-29T05:53:01.829Z,99146.16
2022-12-29T05:55:33.119Z,99143.31
2022-12-29T05:58:04.513Z,99153.78
2022-12-29T06:00:35.774Z,99152.91
2022-12-29T06:03:07.208Z,99135.56
2022-12-29T06:05:38.695Z,99151.00
2022-12-29T06:08:09.982Z,99117.94
2022-12-29T06:10:41.267Z,99122.81
2022-12-29T06:13:12.564Z,99137.09
2022-12-29T06:15:43.849Z,99121.44
2022-12-29T06:18:19.805Z,99136.78
2022-12-29T06:20:51.829Z,99157.13
2022-12-29T06:23:23.155Z,99160.59
2022-12-29T06:25:54.620Z,99156.50
2022-12-29T06:28:25.914Z,99170.25
2022-12-29T06:30:58.440Z,99149.72
2022-12-29T06:33:30.441Z,99142.41
2022-12-29T06:36:02.177Z,99127.63
2022-12-29T06:38:33.509Z,99122.00
2022-12-29T06:41:05.255Z,99124.72
2022-12-29T06:43:38.991Z,99139.88
2022-12-29T06:46:11.330Z,99133.72
2022-12-29T06:48:43.172Z,99129.41
2022-12-29T06:51:14.526Z,99124.03
2022-12-29T06:53:45.816Z,99126.88
2022-12-29T06:56:17.087Z,99129.34
2022-12-29T06:58:48.388Z,99129.34
2022-12-29T07:01:19.993Z,99117.31
2022-12-29T07:03:51.321Z,99132.84
2022-12-29T07:06:22.602Z,99118.97
2022-12-29T07:08:55.951Z,99142.47
2022-12-29T07:11:27.241Z,99135.50
2022-12-29T07:14:05.220Z,99127.66
2022-12-29T07:16:36.518Z,99130.38
2022-12-29T07:19:07.859Z,99144.94
2022-12-29T07:21:39.150Z,99152.88
2022-12-29T07:24:10.465Z,99139.63
2022-12-29T07:26:42.664Z,99132.47
2022-12-29T07:29:13.956Z,99120.53
2022-12-29T07:31:45.429Z,99129.41
2022-12-29T07:34:16.721Z,99144.94
2022-12-29T07:36:48.555Z,99158.25
2022-12-29T07:39:19.840Z,99171.72
2022-12-29T07:41:51.232Z,99172.72
2022-12-29T07:44:22.541Z,99155.91
2022-12-29T07:46:57.563Z,99166.19
2022-12-29T07:49:30.134Z,99180.66
2022-12-29T07:52:01.511Z,99168.81
2022-12-29T07:54:32.774Z,99189.53
2022-12-29T07:57:05.199Z,99193.06
2022-12-29T07:59:36.552Z,99195.88
2022-12-29T08:02:11.792Z,99196.16
2022-12-29T08:04:43.195Z,99199.97
2022-12-29T08:07:14.523Z,99207.97
2022-12-29T08:09:46.562Z,99196.13
2022-12-29T08:12:18.590Z,99175.78
2022-12-29T08:14:49.903Z,99205.34
2022-12-29T08:17:21.220Z,99210.25
2022-12-29T08:19:52.484Z,99225.38
2022-12-29T08:22:24.112Z,99223.75
2022-12-29T08:24:55.456Z,99223.06
2022-12-29T08:27:27.337Z,99226.56
2022-12-29T08:29:58.772Z,99231.75
2022-12-29T08:32:30.199Z,99232.41
2022-12-29T08:35:01.627Z,99239.91
2022-12-29T08:37:33.950Z,99233.44
2022-12-29T08:40:06.689Z,99224.56
2022-12-29T08:42:38.106Z,99233.53
2022-12-29T08:45:10.060Z,99220.84
2022-12-29T08:47:41.341Z,99237.81
2022-12-29T08:50:12.669Z,99242.66
2022-12-29T08:52:43.973Z,99241.81
2022-12-29T08:55:15.332Z,99245.47
2022-12-29T08:57:46.679Z,99231.84
2022-12-29T09:00:18.186Z,99241.31
2022-12-29T09:02:49.638Z,99247.53
2022-12-29T09:05:21.165Z,99246.66
2022-12-29T09:07:52.454Z,99244.06
2022-12-29T09:10:24.417Z,99252.97
2022-12-29T09:12:55.694Z,99208.09
2022-12-29T09:15:27.094Z,99250.31
2022-12-29T09:17:58.503Z,99250.47
2022-12-29T09:20:30.155Z,99267.72
2022-12-29T09:23:01.608Z,99266.66
2022-12-29T09:25:32.959Z,99253.63
2022-12-29T09:28:08.506Z,99265.63
2022-12-29T09:30:40.290Z,99280.97
2022-12-29T09:33:11.564Z,99278.72
2022-12-29T09:35:53.473Z,99262.03
2022-12-29T09:38:26.182Z,99292.03
2022-12-29T09:41:05.797Z,99291.75
2022-12-29T09:44:00.088Z,99274.16
2022-12-29T09:46:42.908Z,99285.59
2022-12-29T09:49:41.994Z,99284.00
2022-12-29T09:52:26.474Z,99287.56
2022-12-29T09:55:05.292Z,99282.16
2022-12-29T09:57:50.595Z,99277.53
2022-12-29T10:00:28.526Z,99273.53
2022-12-29T10:03:07.111Z,99296.44
2022-12-29T10:05:54.610Z,99309.25
2022-12-29T10:08:53.345Z,99292.44
2022-12-29T10:12:01.079Z,99289.97
2022-12-29T10:14:47.064Z,99278.97
2022-12-29T10:17:39.959Z,99279.28
2022-12-29T10:20:20.406Z,99276.63
2022-12-29T10:23:13.451Z,99255.72
2022-12-29T10:25:45.904Z,99251.41
2022-12-29T10:28:23.291Z,99273.81
2022-12-29T10:30:55.789Z,99261.72
2022-12-29T10:33:35.120Z,99285.72
2022-12-29T10:36:20.975Z,99273.34
2022-12-29T10:38:59.788Z,99283.94
2022-12-29T10:41:42.055Z,99289.78
2022-12-29T10:44:16.828Z,99274.63
2022-12-29T10:46:56.766Z,99250.94
2022-12-29T10:49:31.392Z,99271.53
2022-12-29T10:52:04.305Z,99268.56
2022-12-29T10:54:54.642Z,99270.69
2022-12-29T10:57:32.361Z,99273.47
2022-12-29T11:00:24.057Z,99269.72
2022-12-29T11:03:16.477Z,99271.09
2022-12-29T11:06:20.940Z,99280.28
2022-12-29T11:08:59.306Z,99278.13
2022-12-29T11:11:36.187Z,99289.59
2022-12-29T11:14:32.094Z,99287.00
2022-12-29T11:17:05.183Z,99287.25
2022-12-29T11:19:40.929Z,99289.34
2022-12-29T11:22:27.882Z,99288.00
2022-12-29T11:25:13.211Z,99288.72
2022-12-29T11:27:56.907Z,99291.25
2022-12-29T11:30:31.519Z,99285.16
2022-12-29T11:33:05.348Z,99256.75
2022-12-29T11:35:40.338Z,99278.81
2022-12-29T11:38:24.355Z,99282.31
2022-12-29T11:40:55.696Z,99279.72
2022-12-29T11:43:36.338Z,99273.38
2022-12-29T11:46:15.086Z,99278.34
2022-12-29T11:48:47.928Z,99285.06
2022-12-29T11:51:25.612Z,99278.72
2022-12-29T11:54:00.841Z,99274.22
2022-12-29T11:56:40.915Z,99278.72
2022-12-29T11:59:35.732Z,99286.13
2022-12-29T12:02:38.793Z,99258.97
2022-12-29T12:05:21.142Z,99280.38
2022-12-29T12:08:20.793Z,99247.13
2022-12-29T12:11:07.979Z,99253.84
2022-12-29T12:13:58.331Z,99169.84
2022-12-29T12:16:43.510Z,99271.72
2022-12-29T12:19:27.505Z,99286.94
2022-12-29T12:22:29.835Z,99245.38
2022-12-29T12:25:06.447Z,99269.53
2022-12-29T12:27:53.162Z,99288.38
2022-12-29T12:30:25.549Z,99292.28
2022-12-29T12:33:04.115Z,99288.94
2022-12-29T12:35:48.537Z,99277.72
2022-12-29T12:39:01.951Z,99276.00
2022-12-29T12:41:38.991Z,99287.53
2022-12-29T12:44:32.418Z,99272.41
2022-12-29T12:47:25.212Z,99289.06
2022-12-29T12:50:38.321Z,99295.00
2022-12-29T12:53:50.642Z,99290.41
2022-12-29T12:56:34.174Z,99291.16
2022-12-29T12:59:30.742Z,99301.78
2022-12-29T13:02:16.790Z,99309.66
2022-12-29T13:05:05.414Z,99299.00
2022-12-29T13:07:55.676Z,99312.31
2022-12-29T13:10:40.486Z,99302.69
2022-12-29T13:13:33.518Z,99320.47
2022-12-29T13:16:27.270Z,99303.75
2022-12-29T13:19:19.043Z,99301.16
2022-12-29T13:22:21.350Z,99307.22
2022-12-29T13:25:19.034Z,99317.94
2022-12-29T13:28:01.745Z,99290.56
2022-12-29T13:31:05.669Z,99322.09
2022-12-29T13:33:51.672Z,99326.47
2022-12-29T13:36:31.739Z,99342.34
2022-12-29T13:39:20.637Z,99345.91
2022-12-29T13:41:57.404Z,99354.00
2022-12-29T13:44:36.441Z,99351.53
2022-12-29T13:47:34.490Z,99338.56
2022-12-29T13:50:14.479Z,99342.69
2022-12-29T13:53:04.448Z,99346.81
2022-12-29T13:56:05.814Z,99371.50
2022-12-29T13:58:58.855Z,99382.13
2022-12-29T14:02:04.995Z,99396.31
2022-12-29T14:04:37.318Z,99418.50
2022-12-29T14:07:18.037Z,99400.22
2022-12-29T14:09:54.460Z,99414.69
2022-12-29T14:12:31.357Z,99408.78
2022-12-29T14:15:05.913Z,99422.81
2022-12-29T14:17:40.256Z,99418.69
2022-12-29T14:20:23.678Z,99429.63
2022-12-29T14:23:10.074Z,99429.13
2022-12-29T14:25:53.670Z,99440.00
2022-12-29T14:28:27.672Z,99449.09
2022-12-29T14:31:01.632Z,99451.53
2022-12-29T14:33:34.893Z,99451.69
2022-12-29T14:36:34.998Z,99473.22
2022-12-29T14:39:39.868Z,99462.50
2022-12-29T14:42:13.601Z,99482.09
2022-12-29T14:44:49.800Z,99477.00
2022-12-29T14:47:42.126Z,99490.56
2022-12-29T14:50:24.448Z,99490.03
2022-12-29T14:53:03.713Z,99483.47
2022-12-29T14:55:47.460Z,99489.53
2022-12-29T14:58:26.968Z,99509.78
2022-12-29T15:00:59.839Z,99501.91
2022-12-29T15:03:37.234Z,99507.34
2022-12-29T15:06:19.711Z,99503.16
2022-12-29T15:08:57.003Z,99507.03
2022-12-29T15:11:50.626Z,99517.88
2022-12-29T15:14:36.165Z,99518.28
2022-12-29T15:17:25.240Z,99530.09
2022-12-29T15:19:59.073Z,99524.97
2022-12-29T15:22:31.266Z,99512.13
2022-12-29T15:25:03.580Z,99538.03
2022-12-29T15:27:35.627Z,99541.31
2022-12-29T15:30:17.884Z,99522.91
2022-12-29T15:32:50.683Z,99548.81
2022-12-29T15:35:36.624Z,99530.72
2022-12-29T15:38:17.549Z,99557.63
2022-12-29T15:40:55.500Z,99566.31
2022-12-29T15:43:46.983Z,99579.59
2022-12-29T15:46:19.109Z,99576.22
2022-12-29T15:48:50.638Z,99562.66
2022-12-29T15:51:32.118Z,99574.41
2022-12-29T15:54:04.019Z,99582.66
2022-12-29T15:56:35.373Z,99587.25
2022-12-29T15:59:24.052Z,99591.81
2022-12-29T16:02:00.415Z,99580.41
2022-12-29T16:04:43.263Z,99593.47
2022-12-29T16:07:33.266Z,99597.66
2022-12-29T16:10:41.003Z,99610.66
2022-12-29T16:13:23.947Z,99599.91
2022-12-29T16:16:02.997Z,99606.84
2022-12-29T16:18:37.021Z,99600.53
2022-12-29T16:21:20.545Z,99593.66
2022-12-29T16:23:55.394Z,99614.50
2022-12-29T16:26:27.075Z,99617.16
2022-12-29T16:29:01.821Z,99615.50
2022-12-29T16:31:33.143Z,99617.34
2022-12-29T16:34:12.937Z,99622.91
2022-12-29T16:37:28.779Z,99621.53
2022-12-29T16:40:18.519Z,99626.97
2022-12-29T16:42:58.326Z,99616.56
2022-12-29T16:45:32.405Z,99623.00
2022-12-29T16:48:06.685Z,99617.81
2022-12-29T16:50:39.968Z,99629.28
2022-12-29T16:53:25.493Z,99593.66
2022-12-29T16:56:15.359Z,99608.97
2022-12-29T16:58:49.401Z,99632.63
2022-12-29T17:01:21.470Z,99638.06
2022-12-29T17:03:57.926Z,99639.97
2022-12-29T17:06:29.258Z,99642.72
2022-12-29T17:09:00.709Z,99642.88
2022-12-29T17:11:59.344Z,99643.94
2022-12-29T17:14:42.063Z,99622.41
2022-12-29T17:17:34.452Z,99636.41
2022-12-29T17:20:15.214Z,99646.16
2022-12-29T17:22:47.460Z,99631.50
2022-12-29T17:25:21.866Z,99642.53
2022-12-29T17:27:58.769Z,99650.34
2022-12-29T17:30:34.240Z,99632.03
2022-12-29T17:33:10.165Z,99657.09
2022-12-29T17:35:41.622Z,99651.66
2022-12-29T17:38:19.864Z,99659.47
2022-12-29T17:40:51.408Z,99654.13
2022-12-29T17:43:23.073Z,99654.97
2022-12-29T17:45:57.134Z,99656.63
2022-12-29T17:48:28.571Z,99657.41
2022-12-29T17:50:59.910Z,99641.72
2022-12-29T17:53:31.376Z,99669.66
2022-12-29T17:56:03.157Z,99669.66
2022-12-29T17:58:35.593Z,99666.09
2022-12-29T18:01:07.481Z,99666.06
2022-12-29T18:03:40.834Z,99668.69
2022-12-29T18:06:12.656Z,99658.28
2022-12-29T18:08:44.775Z,99666.09
2022-12-29T18:11:23.147Z,99670.44
2022-12-29T18:13:55.130Z,99674.03
2022-12-29T18:16:26.809Z,99677.53
2022-12-29T18:18:58.145Z,99665.34
2022-12-29T18:21:29.515Z,99687.25
2022-12-29T18:24:01.814Z,99669.72
2022-12-29T18:26:35.632Z,99681.22
2022-12-29T18:29:07.008Z,99674.31
2022-12-29T18:31:38.566Z,99678.91
2022-12-29T18:34:14.863Z,99668.59
2022-12-29T18:36:46.116Z,99669.66
2022-12-29T18:39:17.399Z,99666.44
2022-12-29T18:41:48.763Z,99651.47
2022-12-29T18:44:21.560Z,99659.13
2022-12-29T18:46:54.801Z,99649.31
2022-12-29T18:49:26.304Z,99650.88
2022-12-29T18:51:57.716Z,99655.19
2022-12-29T18:54:31.944Z,99649.69
2022-12-29T18:57:03.380Z,99653.13
2022-12-29T18:59:34.646Z,99659.16
2022-12-29T19:02:06.068Z,99658.25
2022-12-29T19:04:37.408Z,99654.59
2022-12-29T19:07:08.665Z,99657.16
2022-12-29T19:09:40.038Z,99656.31
2022-12-29T19:12:16.871Z,99657.13
2022-12-29T19:14:48.238Z,99666.00
2022-12-29T19:17:19.545Z,99670.53
2022-12-29T19:19:50.868Z,99658.19
2022-12-29T19:22:22.337Z,99662.53
2022-12-29T19:24:59.796Z,99653.63
2022-12-29T19:27:33.427Z,99652.66
2022-12-29T19:30:05.110Z,99644.69
2022-12-29T19:32:36.590Z,99644.59
2022-12-29T19:35:09.413Z,99647.41
2022-12-29T19:37:41.486Z,99656.00
2022-12-29T19:40:18.146Z,99645.50
2022-12-29T19:42:50.081Z,99656.03
2022-12-29T19:45:21.617Z,99663.94
2022-12-29T19:47:53.824Z,99651.63
2022-12-29T19:50:25.170Z,99666.63
2022-12-29T19:53:04.775Z,99679.00
2022-12-29T19:55:36.969Z,99684.38
2022-12-29T19:58:08.249Z,99676.59
2022-12-29T20:00:41.324Z,99669.84
2022-12-29T20:03:12.781Z,99693.53
2022-12-29T20:05:48.804Z,99728.84
2022-12-29T20:08:20.762Z,99720.47
2022-12-29T20:11:02.305Z,99751.72
2022-12-29T20:13:35.195Z,99724.53
2022-12-29T20:16:09.748Z,99751.22
2022-12-29T20:18:41.520Z,99756.72
2022-12-29T20:21:18.820Z,99686.31
2022-12-29T20:23:52.396Z,99744.06
2022-12-29T20:26:27.135Z,99750.38
2022-12-29T20:28:59.951Z,99747.13
2022-12-29T20:31:36.692Z,99757.97
2022-12-29T20:34:09.647Z,99771.34
2022-12-29T20:36:45.270Z,99769.84
2022-12-29T20:39:19.732Z,99770.03
2022-12-29T20:41:51.465Z,99771.84
2022-12-29T20:44:23.080Z,99781.47
2022-12-29T20:46:54.989Z,99763.09
2022-12-29T20:49:26.406Z,99791.91
2022-12-29T20:52:07.053Z,99747.19
2022-12-29T20:54:40.056Z,99771.09
2022-12-29T20:57:11.637Z,99783.22
2022-12-29T20:59:43.012Z,99790.19
2022-12-29T21:02:24.121Z,99751.09
2022-12-29T21:05:25.467Z,99791.13
2022-12-29T21:07:46.812Z,99779.78
2022-12-29T21:10:18.321Z,99780.59
2022-12-29T21:12:50.116Z,99762.25
2022-12-29T21:15:21.545Z,99778.03
2022-12-29T21:17:52.816Z,99767.66
2022-12-29T21:20:31.954Z,99770.34
2022-12-29T21:23:04.055Z,99773.13
2022-12-29T21:25:38.390Z,99785.31
2022-12-29T21:28:12.229Z,99795.94
2022-12-29T21:30:43.620Z,99793.31
2022-12-29T21:33:16.277Z,99798.56
2022-12-29T21:35:48.759Z,99802.03
2022-12-29T21:38:20.101Z,99784.53
2022-12-29T21:40:51.477Z,99798.50
2022-12-29T21:43:22.735Z,99784.59
2022-12-29T21:45:54.021Z,99797.63
2022-12-29T21:48:26.317Z,99811.63
2022-12-29T21:51:30.182Z,99806.38
2022-12-29T21:54:20.519Z,99811.69
2022-12-29T21:56:51.901Z,99807.44
2022-12-29T21:59:41.990Z,99784.91
2022-12-29T22:02:37.867Z,99804.25
2022-12-29T22:05:32.960Z,99814.88
2022-12-29T22:08:22.954Z,99811.53
2022-12-29T22:11:12.756Z,99810.75
2022-12-29T22:13:44.139Z,99821.31
2022-12-29T22:16:16.144Z,99823.91
2022-12-29T22:18:47.504Z,99824.88
2022-12-29T22:21:19.449Z,99826.59
2022-12-29T22:23:50.726Z,99834.50
2022-12-29T22:26:22.161Z,99838.84
2022-12-29T22:28:53.631Z,99826.56
2022-12-29T22:31:28.861Z,99838.56
2022-12-29T22:34:03.986Z,99803.72
2022-12-29T22:36:35.373Z,99842.84
2022-12-29T22:39:06.651Z,99853.13
2022-12-29T22:41:37.991Z,99846.06
2022-12-29T22:44:09.458Z,99834.72
2022-12-29T22:46:40.866Z,99852.25
2022-12-29T22:49:12.149Z,99853.22
2022-12-29T22:51:43.416Z,99856.75
2022-12-29T22:54:14.745Z,99849.88
2022-12-29T22:56:46.456Z,99856.03
2022-12-29T22:59:17.758Z,99869.22
2022-12-29T23:01:49.212Z,99857.88
2022-12-29T23:05:02.265Z,99845.78
2022-12-29T23:07:12.210Z,99846.72
2022-12-29T23:09:43.500Z,99869.47
2022-12-29T23:12:14.847Z,99843.44
2022-12-29T23:14:46.162Z,99885.44
2022-12-29T23:17:17.568Z,99889.81
2022-12-29T23:19:50.199Z,99872.31
2022-12-29T23:22:22.885Z,99885.47
2022-12-29T23:24:54.320Z,99891.69
2022-12-29T23:27:25.667Z,99879.50
2022-12-29T23:29:56.937Z,99897.94
2022-12-29T23:32:28.205Z,99896.19
2022-12-29T23:34:59.554Z,99895.34
2022-12-29T23:37:30.835Z,99905.94
2022-12-29T23:40:02.109Z,99885.00
2022-12-29T23:42:33.441Z,99901.53
2022-12-29T23:45:05.442Z,99915.56
2022-12-29T23:47:36.893Z,99924.25
2022-12-29T23:50:08.829Z,99911.09
2022-12-29T23:52:40.103Z,99937.19
2022-12-29T23:55:11.502Z,99924.00
2022-12-29T23:57:42.793Z,99946.56
